createdAt,value
2022-09-16T00:00:38.055Z,19.10
2022-09-16T00:03:04.621Z,19.10
2022-09-16T00:05:31.169Z,19.10
2022-09-16T00:07:57.790Z,19.10
2022-09-16T00:10:24.527Z,19.00
2022-09-16T00:12:51.305Z,19.10
2022-09-16T00:15:18.167Z,19.10
2022-09-16T00:17:44.784Z,19.10
2022-09-16T00:20:11.319Z,19.00
2022-09-16T00:22:38.059Z,19.00
2022-09-16T00:25:04.910Z,19.00
2022-09-16T00:27:31.443Z,19.00
2022-09-16T00:29:58.004Z,19.10
2022-09-16T00:32:24.994Z,19.10
2022-09-16T00:34:52.109Z,19.10
2022-09-16T00:37:18.809Z,19.10
2022-09-16T00:39:48.244Z,19.10
2022-09-16T00:42:15.352Z,19.10
2022-09-16T00:45:04.565Z,19.10
2022-09-16T00:47:51.222Z,19.10
2022-09-16T00:50:28.113Z,19.10
2022-09-16T00:52:56.389Z,19.10
2022-09-16T00:55:27.806Z,19.10
2022-09-16T00:57:56.123Z,19.10
2022-09-16T01:00:22.762Z,19.00
2022-09-16T01:02:50.632Z,19.10
2022-09-16T01:05:25.676Z,19.10
2022-09-16T01:07:54.581Z,19.10
2022-09-16T01:10:24.228Z,19.10
2022-09-16T01:13:02.504Z,19.10
2022-09-16T01:15:55.021Z,19.10
2022-09-16T01:18:28.014Z,19.10
2022-09-16T01:21:21.366Z,19.10
2022-09-16T01:24:01.347Z,19.00
2022-09-16T01:27:05.667Z,19.00
2022-09-16T01:29:38.246Z,19.00
2022-09-16T01:32:26.634Z,19.10
2022-09-16T01:35:02.730Z,19.00
2022-09-16T01:38:02.473Z,19.10
2022-09-16T01:40:41.293Z,19.00
2022-09-16T01:43:35.437Z,19.00
2022-09-16T01:46:12.597Z,19.00
2022-09-16T01:49:20.809Z,19.00
2022-09-16T01:52:01.265Z,19.00
2022-09-16T01:54:37.722Z,19.00
2022-09-16T01:57:21.606Z,19.00
2022-09-16T02:00:02.377Z,19.10
2022-09-16T02:02:56.365Z,19.00
2022-09-16T02:05:40.606Z,19.00
2022-09-16T02:08:12.121Z,19.00
2022-09-16T02:10:43.590Z,19.00
2022-09-16T02:13:41.892Z,19.00
2022-09-16T02:16:14.172Z,19.00
2022-09-16T02:18:43.662Z,19.00
2022-09-16T02:21:15.306Z,19.00
2022-09-16T02:23:46.922Z,19.00
2022-09-16T02:26:17.626Z,19.00
2022-09-16T02:28:48.389Z,19.00
2022-09-16T02:31:15.688Z,19.00
2022-09-16T02:37:43.690Z,19.00
2022-09-16T02:40:16.740Z,19.00
2022-09-16T02:42:43.625Z,19.00
2022-09-16T02:45:10.681Z,19.00
2022-09-16T02:48:22.981Z,19.00
2022-09-16T02:51:12.787Z,19.00
2022-09-16T02:53:59.494Z,19.00
2022-09-16T02:56:39.244Z,19.00
2022-09-16T02:59:08.551Z,19.00
2022-09-16T03:01:41.429Z,19.00
2022-09-16T03:04:10.044Z,19.00
2022-09-16T03:06:36.785Z,19.00
2022-09-16T03:09:06.627Z,19.00
2022-09-16T03:11:43.233Z,19.00
2022-09-16T03:14:43.959Z,19.00
2022-09-16T03:17:27.092Z,19.00
2022-09-16T03:20:12.418Z,19.00
2022-09-16T03:23:05.427Z,19.00
2022-09-16T03:25:55.644Z,19.00
2022-09-16T03:28:45.411Z,19.00
2022-09-16T03:31:18.517Z,19.00
2022-09-16T03:34:06.916Z,19.00
2022-09-16T03:36:40.988Z,19.00
2022-09-16T03:39:09.292Z,19.00
2022-09-16T03:41:35.959Z,18.90
2022-09-16T03:44:04.281Z,19.00
2022-09-16T03:46:31.597Z,19.00
2022-09-16T03:48:58.259Z,19.00
2022-09-16T03:51:25.868Z,18.90
2022-09-16T03:53:53.587Z,19.00
2022-09-16T03:56:20.528Z,19.00
2022-09-16T03:58:50.532Z,19.00
2022-09-16T04:01:17.496Z,19.00
2022-09-16T04:03:44.107Z,19.00
2022-09-16T04:06:10.676Z,18.90
2022-09-16T04:08:37.379Z,19.00
2022-09-16T04:11:06.104Z,18.90
2022-09-16T04:13:35.097Z,18.90
2022-09-16T04:16:03.434Z,18.90
2022-09-16T04:18:34.657Z,18.90
2022-09-16T04:21:03.258Z,18.90
2022-09-16T04:23:31.116Z,18.90
2022-09-16T04:25:59.676Z,18.90
2022-09-16T04:28:26.973Z,18.90
2022-09-16T04:30:53.661Z,18.90
2022-09-16T04:33:21.185Z,18.80
2022-09-16T04:35:47.805Z,17.90
2022-09-16T04:38:16.652Z,17.10
2022-09-16T04:40:43.633Z,16.70
2022-09-16T04:43:10.373Z,16.50
2022-09-16T04:45:36.952Z,16.30
2022-09-16T04:48:03.487Z,16.30
2022-09-16T04:50:30.051Z,16.30
2022-09-16T04:52:56.611Z,16.20
2022-09-16T04:55:23.909Z,16.20
2022-09-16T04:57:50.881Z,16.20
2022-09-16T05:00:17.512Z,16.10
2022-09-16T05:02:45.794Z,16.00
2022-09-16T05:05:12.745Z,16.00
2022-09-16T05:07:39.279Z,16.00
2022-09-16T05:10:08.871Z,15.90
2022-09-16T05:12:35.401Z,15.90
2022-09-16T05:15:01.921Z,15.90
2022-09-16T05:17:50.409Z,16.30
2022-09-16T05:20:17.812Z,16.80
2022-09-16T05:22:44.413Z,17.20
2022-09-16T05:25:11.419Z,17.50
2022-09-16T05:27:37.955Z,17.70
2022-09-16T05:30:04.963Z,17.80
2022-09-16T05:32:31.488Z,18.00
2022-09-16T05:34:58.100Z,18.10
2022-09-16T05:37:24.645Z,18.10
2022-09-16T05:39:51.171Z,18.20
2022-09-16T05:42:17.717Z,18.20
2022-09-16T05:44:44.301Z,18.50
2022-09-16T05:47:10.819Z,18.30
2022-09-16T05:49:37.384Z,18.30
2022-09-16T05:52:03.958Z,18.30
2022-09-16T05:54:31.365Z,18.40
2022-09-16T05:56:57.951Z,18.40
2022-09-16T05:59:24.536Z,18.40
2022-09-16T06:01:51.223Z,18.40
2022-09-16T06:04:17.844Z,18.50
2022-09-16T06:06:46.172Z,18.50
2022-09-16T06:09:21.621Z,18.50
2022-09-16T06:11:50.383Z,18.50
2022-09-16T06:14:18.408Z,18.50
2022-09-16T06:16:46.076Z,18.50
2022-09-16T06:19:15.206Z,18.50
2022-09-16T06:21:43.735Z,18.50
2022-09-16T06:24:11.895Z,18.60
2022-09-16T06:26:40.628Z,18.60
2022-09-16T06:29:08.381Z,18.60
2022-09-16T06:31:36.578Z,18.60
2022-09-16T06:34:04.189Z,18.60
2022-09-16T06:36:33.933Z,18.60
2022-09-16T06:39:00.485Z,18.60
2022-09-16T06:41:27.130Z,18.60
2022-09-16T06:43:54.034Z,18.70
2022-09-16T06:46:23.203Z,18.70
2022-09-16T06:48:52.238Z,18.70
2022-09-16T06:51:22.681Z,18.70
2022-09-16T06:53:50.511Z,18.70
2022-09-16T06:56:19.606Z,18.70
2022-09-16T06:58:48.233Z,18.70
2022-09-16T07:01:21.120Z,18.70
2022-09-16T07:03:49.960Z,18.70
2022-09-16T07:06:18.245Z,18.70
2022-09-16T07:08:45.832Z,18.70
2022-09-16T07:11:14.970Z,18.70
2022-09-16T07:13:42.403Z,18.00
2022-09-16T07:16:13.745Z,17.50
2022-09-16T07:18:41.626Z,17.20
2022-09-16T07:21:14.253Z,17.00
2022-09-16T07:23:41.698Z,17.00
2022-09-16T07:26:17.174Z,16.80
2022-09-16T07:28:48.140Z,16.70
2022-09-16T07:31:17.935Z,16.70
2022-09-16T07:33:47.999Z,16.80
2022-09-16T07:36:17.976Z,16.90
2022-09-16T07:38:44.659Z,16.90
2022-09-16T07:41:14.595Z,16.90
2022-09-16T07:43:42.235Z,16.90
2022-09-16T07:46:11.184Z,16.80
2022-09-16T07:48:38.433Z,16.70
2022-09-16T07:51:08.111Z,16.80
2022-09-16T07:53:35.763Z,16.80
2022-09-16T07:56:05.449Z,16.90
2022-09-16T07:58:32.510Z,17.00
2022-09-16T08:01:04.282Z,17.10
2022-09-16T08:03:32.359Z,17.30
2022-09-16T08:06:09.440Z,17.30
2022-09-16T08:08:36.455Z,17.40
2022-09-16T08:11:03.807Z,19.80
2022-09-16T08:13:32.124Z,17.40
2022-09-16T08:16:07.351Z,17.20
2022-09-16T08:18:34.173Z,17.10
2022-09-16T08:21:08.077Z,17.20
2022-09-16T08:23:36.198Z,17.50
2022-09-16T08:26:02.921Z,17.70
2022-09-16T08:28:39.950Z,17.90
2022-09-16T08:31:18.478Z,18.00
2022-09-16T08:33:45.228Z,18.10
2022-09-16T08:36:19.622Z,18.20
2022-09-16T08:38:47.480Z,18.30
2022-09-16T08:41:31.532Z,18.30
2022-09-16T08:44:42.568Z,18.30
2022-09-16T08:47:33.191Z,18.40
2022-09-16T08:50:03.203Z,18.40
2022-09-16T08:52:34.226Z,18.40
2022-09-16T08:55:04.373Z,18.50
2022-09-16T08:57:38.492Z,18.50
2022-09-16T09:00:16.525Z,18.50
2022-09-16T09:02:52.298Z,18.50
2022-09-16T09:05:27.017Z,18.60
2022-09-16T09:08:23.229Z,18.60
2022-09-16T09:10:57.779Z,18.60
2022-09-16T09:13:52.399Z,18.60
2022-09-16T09:16:37.502Z,18.60
2022-09-16T09:20:09.907Z,18.70
2022-09-16T09:22:47.688Z,18.60
2022-09-16T09:25:37.288Z,18.60
2022-09-16T09:28:57.241Z,18.60
2022-09-16T09:31:33.991Z,18.60
2022-09-16T09:34:41.642Z,18.50
2022-09-16T09:37:32.693Z,18.50
2022-09-16T09:39:59.622Z,18.30
2022-09-16T09:42:47.183Z,18.20
2022-09-16T09:45:28.330Z,18.10
2022-09-16T09:47:58.769Z,17.90
2022-09-16T09:50:42.552Z,17.90
2022-09-16T09:53:25.284Z,18.00
2022-09-16T09:56:11.757Z,18.10
2022-09-16T09:58:46.256Z,18.10
2022-09-16T10:01:12.826Z,18.00
2022-09-16T10:03:40.429Z,17.90
2022-09-16T10:06:07.355Z,17.40
2022-09-16T10:08:46.057Z,17.10
2022-09-16T10:11:22.368Z,17.00
2022-09-16T10:13:55.088Z,16.90
2022-09-16T10:16:26.358Z,16.90
2022-09-16T10:19:09.048Z,16.90
2022-09-16T10:22:10.457Z,16.70
2022-09-16T10:24:42.031Z,16.70
2022-09-16T10:27:38.726Z,16.90
2022-09-16T10:30:19.626Z,17.20
2022-09-16T10:32:49.089Z,17.70
2022-09-16T10:35:21.163Z,17.40
2022-09-16T10:37:59.396Z,17.40
2022-09-16T10:40:26.982Z,17.50
2022-09-16T10:42:56.856Z,17.70
2022-09-16T10:45:30.207Z,17.80
2022-09-16T10:48:07.138Z,17.90
2022-09-16T10:50:34.188Z,18.00
2022-09-16T10:53:00.777Z,18.00
2022-09-16T10:55:27.415Z,17.80
2022-09-16T10:58:06.578Z,17.60
2022-09-16T11:00:45.717Z,17.40
2022-09-16T11:03:39.984Z,17.20
2022-09-16T11:06:35.648Z,17.30
2022-09-16T11:09:44.978Z,17.60
2022-09-16T11:12:40.537Z,17.80
2022-09-16T11:15:49.077Z,17.90
2022-09-16T11:18:30.719Z,17.90
2022-09-16T11:21:20.789Z,18.10
2022-09-16T11:24:05.853Z,17.50
2022-09-16T11:26:48.639Z,17.40
2022-09-16T11:30:40.291Z,17.70
2022-09-16T11:33:27.744Z,17.90
2022-09-16T11:36:19.123Z,18.10
2022-09-16T11:39:07.530Z,18.20
2022-09-16T11:41:43.966Z,18.30
2022-09-16T11:44:38.715Z,18.30
2022-09-16T11:47:40.548Z,18.30
2022-09-16T11:50:20.062Z,18.40
2022-09-16T11:53:21.281Z,18.40
2022-09-16T11:56:00.209Z,18.40
2022-09-16T11:58:45.093Z,18.40
2022-09-16T12:01:23.567Z,18.50
2022-09-16T12:04:10.322Z,18.50
2022-09-16T12:07:01.090Z,18.50
2022-09-16T12:09:45.313Z,18.50
2022-09-16T12:12:22.201Z,18.50
2022-09-16T12:15:03.200Z,18.30
2022-09-16T12:17:34.930Z,18.40
2022-09-16T12:20:21.043Z,18.30
2022-09-16T12:23:08.923Z,18.40
2022-09-16T12:25:46.231Z,18.50
2022-09-16T12:28:24.970Z,18.60
2022-09-16T12:31:23.078Z,18.60
2022-09-16T12:33:59.045Z,18.60
2022-09-16T12:36:31.156Z,18.70
2022-09-16T12:38:59.447Z,18.70
2022-09-16T12:41:38.568Z,18.80
2022-09-16T12:44:33.913Z,18.80
2022-09-16T12:47:11.277Z,18.80
2022-09-16T12:49:55.908Z,18.80
2022-09-16T12:52:54.586Z,18.80
2022-09-16T12:55:33.799Z,18.30
2022-09-16T12:58:29.416Z,17.80
2022-09-16T13:01:27.634Z,17.70
2022-09-16T13:03:58.078Z,17.60
2022-09-16T13:06:32.354Z,17.50
2022-09-16T13:09:33.083Z,17.40
2022-09-16T13:14:56.733Z,17.80
2022-09-16T13:17:41.853Z,17.70
2022-09-16T13:20:34.699Z,17.70
2022-09-16T13:23:22.808Z,17.60
2022-09-16T13:26:00.331Z,17.40
2022-09-16T13:28:32.594Z,17.20
2022-09-16T13:31:14.381Z,17.10
2022-09-16T13:33:46.582Z,16.90
2022-09-16T13:36:15.330Z,16.80
2022-09-16T13:38:45.247Z,16.90
2022-09-16T13:41:14.244Z,17.00
2022-09-16T13:43:46.707Z,17.20
2022-09-16T13:46:26.237Z,17.40
2022-09-16T13:48:58.402Z,17.50
2022-09-16T13:51:25.448Z,17.50
2022-09-16T13:53:53.417Z,17.50
2022-09-16T13:56:55.332Z,17.70
2022-09-16T13:59:44.593Z,17.70
2022-09-16T14:02:23.617Z,17.80
2022-09-16T14:05:09.030Z,17.90
2022-09-16T14:07:47.028Z,18.00
2022-09-16T14:10:35.381Z,18.00
2022-09-16T14:13:13.461Z,18.10
2022-09-16T14:15:59.332Z,18.00
2022-09-16T14:18:30.734Z,18.10
2022-09-16T14:21:06.642Z,18.00
2022-09-16T14:23:33.909Z,17.90
2022-09-16T14:26:17.975Z,17.90
2022-09-16T14:28:44.880Z,18.10
2022-09-16T14:31:21.063Z,18.30
2022-09-16T14:33:56.590Z,18.30
2022-09-16T14:36:29.880Z,18.40
2022-09-16T14:38:56.388Z,18.50
2022-09-16T14:41:37.672Z,18.50
2022-09-16T14:44:32.586Z,18.50
2022-09-16T14:47:10.544Z,18.60
2022-09-16T14:49:49.742Z,18.60
2022-09-16T14:52:20.576Z,18.60
2022-09-16T14:54:47.419Z,18.60
2022-09-16T14:57:23.105Z,18.60
2022-09-16T14:59:52.459Z,18.70
2022-09-16T15:02:31.173Z,18.60
2022-09-16T15:05:08.332Z,18.70
2022-09-16T15:07:56.250Z,18.70
2022-09-16T15:10:30.324Z,18.70
2022-09-16T15:13:13.015Z,18.70
2022-09-16T15:15:47.967Z,18.70
2022-09-16T15:18:35.989Z,18.70
2022-09-16T15:21:07.624Z,18.70
2022-09-16T15:23:36.032Z,18.70
2022-09-16T15:26:12.624Z,18.70
2022-09-16T15:28:51.095Z,18.70
2022-09-16T15:31:40.638Z,18.70
2022-09-16T15:34:22.285Z,18.70
2022-09-16T15:36:56.681Z,18.70
2022-09-16T15:39:32.935Z,18.70
2022-09-16T15:42:20.580Z,18.70
2022-09-16T15:44:54.891Z,18.70
2022-09-16T15:47:31.773Z,18.70
2022-09-16T15:50:03.959Z,18.70
2022-09-16T15:52:49.393Z,18.70
2022-09-16T15:55:29.623Z,18.70
2022-09-16T15:58:16.825Z,18.70
2022-09-16T16:00:59.172Z,18.70
2022-09-16T16:03:26.018Z,18.80
2022-09-16T16:05:54.318Z,18.80
2022-09-16T16:08:41.764Z,18.80
2022-09-16T16:11:10.932Z,18.70
2022-09-16T16:13:38.776Z,18.80
2022-09-16T16:16:06.051Z,18.80
2022-09-16T16:18:32.931Z,18.80
2022-09-16T16:21:01.566Z,18.80
2022-09-16T16:23:28.398Z,18.80
2022-09-16T16:25:55.202Z,18.80
2022-09-16T16:28:21.893Z,18.80
2022-09-16T16:30:48.498Z,18.80
2022-09-16T16:33:21.375Z,18.80
2022-09-16T16:35:47.903Z,18.80
2022-09-16T16:38:14.413Z,18.80
2022-09-16T16:40:49.925Z,18.80
2022-09-16T16:43:16.441Z,18.80
2022-09-16T16:45:42.974Z,18.80
2022-09-16T16:48:11.612Z,18.80
2022-09-16T16:50:38.132Z,18.80
2022-09-16T16:53:04.662Z,18.80
2022-09-16T16:55:31.753Z,18.80
2022-09-16T16:57:58.367Z,18.80
2022-09-16T17:00:24.921Z,18.80
2022-09-16T17:02:51.526Z,18.80
2022-09-16T17:05:18.226Z,18.80
2022-09-16T17:07:44.754Z,18.80
2022-09-16T17:10:11.276Z,18.80
2022-09-16T17:12:37.847Z,18.80
2022-09-16T17:15:04.834Z,18.80
2022-09-16T17:17:31.992Z,18.80
2022-09-16T17:19:59.202Z,18.80
2022-09-16T17:22:25.785Z,18.80
2022-09-16T17:24:52.330Z,18.90
2022-09-16T17:27:20.564Z,18.80
2022-09-16T17:29:47.087Z,18.70
2022-09-16T17:32:13.904Z,18.80
2022-09-16T17:34:41.415Z,18.80
2022-09-16T17:37:08.420Z,18.80
2022-09-16T17:39:35.328Z,18.80
2022-09-16T17:42:02.032Z,18.90
2022-09-16T17:44:28.559Z,18.90
2022-09-16T17:46:55.217Z,18.90
2022-09-16T17:49:23.765Z,19.00
2022-09-16T17:51:54.197Z,19.00
2022-09-16T17:54:21.685Z,19.00
2022-09-16T17:56:48.618Z,19.00
2022-09-16T17:59:17.166Z,19.00
2022-09-16T18:01:44.028Z,19.00
2022-09-16T18:04:11.049Z,19.00
2022-09-16T18:06:46.224Z,19.00
2022-09-16T18:09:13.724Z,19.00
2022-09-16T18:11:40.887Z,19.00
2022-09-16T18:14:10.405Z,19.00
2022-09-16T18:16:37.358Z,19.00
2022-09-16T18:19:05.001Z,19.00
2022-09-16T18:21:32.210Z,19.00
2022-09-16T18:24:03.575Z,19.00
2022-09-16T18:26:32.949Z,19.00
2022-09-16T18:29:10.403Z,19.00
2022-09-16T18:31:39.340Z,19.00
2022-09-16T18:34:05.968Z,19.00
2022-09-16T18:36:34.987Z,19.00
2022-09-16T18:39:01.819Z,19.00
2022-09-16T18:41:30.962Z,19.00
2022-09-16T18:44:00.657Z,18.90
2022-09-16T18:46:29.525Z,19.00
2022-09-16T18:48:56.521Z,19.00
2022-09-16T18:51:34.610Z,19.00
2022-09-16T18:54:03.648Z,19.00
2022-09-16T18:56:32.592Z,18.90
2022-09-16T18:59:21.516Z,19.00
2022-09-16T19:01:48.779Z,18.90
2022-09-16T19:04:17.901Z,18.90
2022-09-16T19:06:47.476Z,18.90
2022-09-16T19:09:18.629Z,19.00
2022-09-16T19:12:04.516Z,18.90
2022-09-16T19:14:31.090Z,18.90
2022-09-16T19:16:57.765Z,18.90
2022-09-16T19:19:24.461Z,18.90
2022-09-16T19:21:51.133Z,18.90
2022-09-16T19:24:20.391Z,18.90
2022-09-16T19:26:48.684Z,18.90
2022-09-16T19:29:16.285Z,18.90
2022-09-16T19:31:44.811Z,18.90
2022-09-16T19:34:12.279Z,18.90
2022-09-16T19:36:39.721Z,18.90
2022-09-16T19:39:07.306Z,19.00
2022-09-16T19:41:37.231Z,18.90
2022-09-16T19:44:05.993Z,18.90
2022-09-16T19:46:35.540Z,18.90
2022-09-16T19:49:02.787Z,18.90
2022-09-16T19:51:29.681Z,18.90
2022-09-16T19:53:58.244Z,18.90
2022-09-16T19:56:27.906Z,18.90
2022-09-16T19:58:54.777Z,18.90
2022-09-16T20:01:30.237Z,18.90
2022-09-16T20:03:57.394Z,18.90
2022-09-16T20:06:27.397Z,18.90
2022-09-16T20:08:59.950Z,18.90
2022-09-16T20:11:29.579Z,18.90
2022-09-16T20:13:59.035Z,18.90
2022-09-16T20:16:31.131Z,18.90
2022-09-16T20:18:58.050Z,17.60
2022-09-16T20:21:27.085Z,16.70
2022-09-16T20:23:54.534Z,16.60
2022-09-16T20:26:22.218Z,17.20
2022-09-16T20:28:50.665Z,17.60
2022-09-16T20:31:20.430Z,18.00
2022-09-16T20:33:47.688Z,18.20
2022-09-16T20:36:16.799Z,18.30
2022-09-16T20:38:44.595Z,18.40
2022-09-16T20:41:20.239Z,18.50
2022-09-16T20:43:47.616Z,18.60
2022-09-16T20:46:18.266Z,18.50
2022-09-16T20:48:45.451Z,17.30
2022-09-16T20:51:17.491Z,16.60
2022-09-16T20:53:49.527Z,16.30
2022-09-16T20:56:17.429Z,16.10
2022-09-16T20:58:44.503Z,16.00
2022-09-16T21:01:15.817Z,16.50
2022-09-16T21:03:43.723Z,17.10
2022-09-16T21:06:14.144Z,17.50
2022-09-16T21:08:41.745Z,17.80
2022-09-16T21:11:16.438Z,18.00
2022-09-16T21:13:45.509Z,18.10
2022-09-16T21:16:14.213Z,18.20
2022-09-16T21:18:42.054Z,18.30
2022-09-16T21:21:12.683Z,18.30
2022-09-16T21:23:40.081Z,18.40
2022-09-16T21:26:20.940Z,18.40
2022-09-16T21:28:53.109Z,18.40
2022-09-16T21:31:19.718Z,18.50
2022-09-16T21:33:49.502Z,18.50
2022-09-16T21:36:16.153Z,18.50
2022-09-16T21:38:42.922Z,18.50
2022-09-16T21:41:12.250Z,18.50
2022-09-16T21:43:41.396Z,18.60
2022-09-16T21:46:28.139Z,18.50
2022-09-16T21:49:03.220Z,18.60
2022-09-16T21:51:37.118Z,18.60
2022-09-16T21:54:05.976Z,18.60
2022-09-16T21:56:32.728Z,18.60
2022-09-16T21:59:00.708Z,18.60
2022-09-16T22:01:30.228Z,18.60
2022-09-16T22:04:14.752Z,18.60
2022-09-16T22:06:42.252Z,18.60
2022-09-16T22:09:10.402Z,18.60
2022-09-16T22:11:39.426Z,18.70
2022-09-16T22:14:06.319Z,18.70
2022-09-16T22:16:34.856Z,18.60
2022-09-16T22:19:04.000Z,18.70
2022-09-16T22:21:32.763Z,18.70
2022-09-16T22:24:01.013Z,18.70
2022-09-16T22:26:28.971Z,18.70
2022-09-16T22:28:56.000Z,18.70
2022-09-16T22:31:25.630Z,18.70
2022-09-16T22:33:53.864Z,18.70
2022-09-16T22:36:22.987Z,18.70
2022-09-16T22:38:53.012Z,18.70
2022-09-16T22:41:20.583Z,18.70
2022-09-16T22:43:49.427Z,18.70
2022-09-16T22:46:27.636Z,18.70
2022-09-16T22:48:58.793Z,18.70
2022-09-16T22:51:26.808Z,18.70
2022-09-16T22:53:54.171Z,18.70
2022-09-16T22:56:28.295Z,18.70
2022-09-16T22:58:56.745Z,18.70
2022-09-16T23:01:26.141Z,18.70
2022-09-16T23:03:56.966Z,18.70
2022-09-16T23:06:25.256Z,18.70
2022-09-16T23:08:52.991Z,18.70
2022-09-16T23:11:23.137Z,18.70
2022-09-16T23:13:52.689Z,18.70
2022-09-16T23:16:27.510Z,18.70
2022-09-16T23:18:58.127Z,18.70
2022-09-16T23:21:25.470Z,18.70
2022-09-16T23:23:55.409Z,18.70
2022-09-16T23:26:25.181Z,18.70
2022-09-16T23:28:53.407Z,18.70
2022-09-16T23:31:22.069Z,18.70
2022-09-16T23:33:49.211Z,18.70
2022-09-16T23:36:17.282Z,18.70
2022-09-16T23:38:45.750Z,18.70
2022-09-16T23:41:15.248Z,18.70
2022-09-16T23:43:42.877Z,18.70
2022-09-16T23:46:15.153Z,18.70
2022-09-16T23:48:46.613Z,18.70
2022-09-16T23:51:13.952Z,18.70
2022-09-16T23:53:42.221Z,18.70
2022-09-16T23:56:12.568Z,18.70
2022-09-16T23:58:39.997Z,18.70
